Accueil
METAR-TAF:

METAR-TAF

Aéroports :

Aéroport de Baie-Comeau

Baie-Comeau, Québec, Canada

latitude: 49-08N, longitude: 068-12W, altitude: 21 m

Observation

Le bulletin a été fait il y a 21 minutes, à 03:00 UTC
Vent 5 kt de nord/nord-ouest
Température 12°C
Humidité 88%
Pression 1016 hPa
Visibilité: 14.5 km
Ciel clair

METAR: CYBC 190300Z AUTO 34005KT 9SM CLR 12/10 A3000 RMK SLP160

Heure: 23:21 (03:21 UTC)

Prévision

Le bulletin a été fait il y a 1 heure et 43 minutes, à 01:38 UTC
Prévision valable du 19 à 02 UTC au 19 à 14 UTC
Vent 5 kt de nord-est
Visibilité: 10 km
Ciel clair

TAF: CYBC 190138Z 1902/1914 05005KT P6SM SKC RMK FCST BASED ON AUTO OBS. NXT FCST BY 190800Z

Observations et prévisions météorologiques de plus de 4000 aéroports (messages METAR et TAF).

Les stations disponibles sont représentées par des disques jaunes et rouges sur la carte.

Passer la souris dessus pour voir le nom de la station.

Cliquer dessus pour voir les observations et prévisions météorologiques.

Pour changer de carte: cliquez sur les boutons verts avec une croix noire pour zoomer, sur le bouton vert avec un tiret pour effectuer un zoom arrière, ou sur les flèches vertes pour les cartes adjacentes.


METAR-TAF: